CheckWX is a tool to help pilots better visualize weather data.  It is not intended as a substitute for an official pre-flight weather briefing.

04:28:16 UTC

KHIE TAF
Mount Washington Regional Airport
Whitefield, New Hampshire, USA
KHIE 250522Z 2506/2606 VRB04KT P6SM BKN200

May-25@
06:00 UTC

May-25 @ 06:00 UTC

May-26@
06:00 UTC

May-26 @ 06:00 UTC

TAF KHIE 250522Z 2506/2606 VRB04KT P6SM BKN200
Wind
  • Variable at 4 KTS
Cloud Levels
  • Broken at 20,000' AGL